sensor_id;sensor_type;location;lat;lon;timestamp;pressure;altitude;pressure_sealevel;temperature;humidity
70027;BME280;57506;50.092;15.804;2023-12-20T00:00:59;98828.47;;;5.84;88.92
70027;BME280;57506;50.092;15.804;2023-12-20T00:03:24;98829.63;;;5.89;88.40
70027;BME280;57506;50.092;15.804;2023-12-20T00:05:50;98802.03;;;5.89;86.13
70027;BME280;57506;50.092;15.804;2023-12-20T00:08:16;98807.53;;;5.87;87.74
70027;BME280;57506;50.092;15.804;2023-12-20T00:10:43;98824.56;;;6.03;87.62
70027;BME280;57506;50.092;15.804;2023-12-20T00:13:09;98790.53;;;5.80;88.32
70027;BME280;57506;50.092;15.804;2023-12-20T00:15:34;98751.91;;;5.44;90.20
70027;BME280;57506;50.092;15.804;2023-12-20T00:18:00;98773.28;;;5.52;91.99
70027;BME280;57506;50.092;15.804;2023-12-20T00:20:26;98806.13;;;5.60;92.94
70027;BME280;57506;50.092;15.804;2023-12-20T00:22:55;98816.31;;;5.65;93.60
70027;BME280;57506;50.092;15.804;2023-12-20T00:25:21;98827.34;;;5.62;95.17
70027;BME280;57506;50.092;15.804;2023-12-20T00:27:47;98810.69;;;5.44;96.90
70027;BME280;57506;50.092;15.804;2023-12-20T00:30:12;98788.69;;;5.34;99.23
70027;BME280;57506;50.092;15.804;2023-12-20T00:32:38;98794.06;;;5.17;100.00
70027;BME280;57506;50.092;15.804;2023-12-20T00:35:04;98798.41;;;5.02;100.00
70027;BME280;57506;50.092;15.804;2023-12-20T00:37:30;98784.06;;;4.87;100.00
70027;BME280;57506;50.092;15.804;2023-12-20T00:39:55;98793.38;;;4.91;100.00
70027;BME280;57506;50.092;15.804;2023-12-20T00:42:21;98796.06;;;4.83;100.00
70027;BME280;57506;50.092;15.804;2023-12-20T00:44:46;98762.88;;;4.69;100.00
70027;BME280;57506;50.092;15.804;2023-12-20T00:47:12;98766.56;;;4.68;100.00
70027;BME280;57506;50.092;15.804;2023-12-20T00:49:38;98773.41;;;4.71;100.00
70027;BME280;57506;50.092;15.804;2023-12-20T00:52:04;98760.03;;;4.63;100.00
70027;BME280;57506;50.092;15.804;2023-12-20T00:54:29;98769.38;;;4.75;100.00
70027;BME280;57506;50.092;15.804;2023-12-20T00:56:56;98778.53;;;4.72;100.00
70027;BME280;57506;50.092;15.804;2023-12-20T00:59:21;98797.25;;;4.80;100.00
70027;BME280;57506;50.092;15.804;2023-12-20T01:01:47;98786.22;;;4.83;100.00
70027;BME280;57506;50.092;15.804;2023-12-20T01:04:12;98778.38;;;4.74;100.00
70027;BME280;57506;50.092;15.804;2023-12-20T01:06:38;98789.88;;;4.74;100.00
70027;BME280;57506;50.092;15.804;2023-12-20T01:09:03;98772.38;;;4.64;100.00
70027;BME280;57506;50.092;15.804;2023-12-20T01:11:29;98768.19;;;4.61;100.00
70027;BME280;57506;50.092;15.804;2023-12-20T01:13:55;98751.84;;;4.56;100.00
70027;BME280;57506;50.092;15.804;2023-12-20T01:16:20;98782.22;;;4.71;100.00
70027;BME280;57506;50.092;15.804;2023-12-20T01:18:46;98767.38;;;4.69;100.00
70027;BME280;57506;50.092;15.804;2023-12-20T01:21:12;98776.88;;;4.79;100.00
70027;BME280;57506;50.092;15.804;2023-12-20T01:23:37;98776.69;;;4.73;100.00
70027;BME280;57506;50.092;15.804;2023-12-20T01:26:03;98772.19;;;4.73;100.00
70027;BME280;57506;50.092;15.804;2023-12-20T01:28:30;98748.34;;;4.55;100.00
70027;BME280;57506;50.092;15.804;2023-12-20T01:30:57;98773.53;;;4.61;100.00
70027;BME280;57506;50.092;15.804;2023-12-20T01:33:23;98758.53;;;4.44;100.00
70027;BME280;57506;50.092;15.804;2023-12-20T01:35:48;98756.34;;;4.39;100.00
70027;BME280;57506;50.092;15.804;2023-12-20T01:38:14;98754.69;;;4.38;100.00
70027;BME280;57506;50.092;15.804;2023-12-20T01:40:39;98758.53;;;4.44;100.00
70027;BME280;57506;50.092;15.804;2023-12-20T01:43:08;98743.34;;;4.44;100.00
70027;BME280;57506;50.092;15.804;2023-12-20T01:45:34;98731.34;;;4.40;100.00
70027;BME280;57506;50.092;15.804;2023-12-20T01:48:00;98752.69;;;4.48;100.00
70027;BME280;57506;50.092;15.804;2023-12-20T01:50:28;98753.69;;;4.47;100.00
70027;BME280;57506;50.092;15.804;2023-12-20T01:52:55;98698.00;;;4.20;100.00
70027;BME280;57506;50.092;15.804;2023-12-20T01:55:23;98728.69;;;4.48;100.00
70027;BME280;57506;50.092;15.804;2023-12-20T01:57:50;98680.66;;;4.24;100.00
70027;BME280;57506;50.092;15.804;2023-12-20T02:00:16;98716.34;;;4.47;100.00
70027;BME280;57506;50.092;15.804;2023-12-20T02:02:44;98694.66;;;4.34;100.00
70027;BME280;57506;50.092;15.804;2023-12-20T02:05:10;98652.16;;;4.16;100.00
70027;BME280;57506;50.092;15.804;2023-12-20T02:07:36;98689.16;;;4.36;100.00
70027;BME280;57506;50.092;15.804;2023-12-20T02:10:02;98672.50;;;4.34;100.00
70027;BME280;57506;50.092;15.804;2023-12-20T02:12:29;98663.50;;;4.35;100.00
70027;BME280;57506;50.092;15.804;2023-12-20T02:14:55;98681.63;;;4.39;100.00
70027;BME280;57506;50.092;15.804;2023-12-20T02:17:22;98687.31;;;4.44;100.00
70027;BME280;57506;50.092;15.804;2023-12-20T02:19:47;98666.66;;;4.38;100.00
70027;BME280;57506;50.092;15.804;2023-12-20T02:22:13;98676.31;;;4.39;100.00
70027;BME280;57506;50.092;15.804;2023-12-20T02:24:39;98690.00;;;4.44;100.00
70027;BME280;57506;50.092;15.804;2023-12-20T02:27:08;98692.00;;;4.42;100.00
70027;BME280;57506;50.092;15.804;2023-12-20T02:29:34;98688.66;;;4.40;100.00
70027;BME280;57506;50.092;15.804;2023-12-20T02:32:00;98652.66;;;4.20;100.00
70027;BME280;57506;50.092;15.804;2023-12-20T02:34:26;98685.34;;;4.38;100.00
70027;BME280;57506;50.092;15.804;2023-12-20T02:36:51;98662.47;;;4.28;100.00
70027;BME280;57506;50.092;15.804;2023-12-20T02:39:18;98677.97;;;4.40;100.00
70027;BME280;57506;50.092;15.804;2023-12-20T02:41:44;98686.97;;;4.39;100.00
70027;BME280;57506;50.092;15.804;2023-12-20T02:44:09;98684.81;;;4.43;100.00
70027;BME280;57506;50.092;15.804;2023-12-20T02:46:35;98647.66;;;4.33;100.00
70027;BME280;57506;50.092;15.804;2023-12-20T02:49:01;98664.97;;;4.45;100.00
70027;BME280;57506;50.092;15.804;2023-12-20T02:51:26;98649.81;;;4.46;100.00
70027;BME280;57506;50.092;15.804;2023-12-20T02:53:52;98576.66;;;4.08;100.00
70027;BME280;57506;50.092;15.804;2023-12-20T02:56:17;98670.63;;;4.58;100.00
70027;BME280;57506;50.092;15.804;2023-12-20T02:58:43;98674.13;;;4.59;100.00
70027;BME280;57506;50.092;15.804;2023-12-20T03:01:08;98644.13;;;4.41;100.00
70027;BME280;57506;50.092;15.804;2023-12-20T03:03:34;98656.78;;;4.55;100.00
70027;BME280;57506;50.092;15.804;2023-12-20T03:06:00;98675.31;;;4.65;100.00
70027;BME280;57506;50.092;15.804;2023-12-20T03:08:25;98670.13;;;4.63;100.00
70027;BME280;57506;50.092;15.804;2023-12-20T03:10:51;98665.97;;;4.61;100.00
70027;BME280;57506;50.092;15.804;2023-12-20T03:13:16;98651.28;;;4.56;100.00
70027;BME280;57506;50.092;15.804;2023-12-20T03:15:42;98632.13;;;4.45;100.00
70027;BME280;57506;50.092;15.804;2023-12-20T03:18:08;98673.13;;;4.68;100.00
70027;BME280;57506;50.092;15.804;2023-12-20T03:20:33;98650.94;;;4.60;100.00
70027;BME280;57506;50.092;15.804;2023-12-20T03:23:03;98644.13;;;4.57;100.00
70027;BME280;57506;50.092;15.804;2023-12-20T03:25:29;98654.28;;;4.62;100.00
70027;BME280;57506;50.092;15.804;2023-12-20T03:27:54;98662.28;;;4.70;100.00
70027;BME280;57506;50.092;15.804;2023-12-20T03:30:20;98648.94;;;4.62;100.00
70027;BME280;57506;50.092;15.804;2023-12-20T03:32:46;98674.09;;;4.75;100.00
70027;BME280;57506;50.092;15.804;2023-12-20T03:35:12;98651.28;;;4.65;100.00
70027;BME280;57506;50.092;15.804;2023-12-20T03:37:38;98661.94;;;4.73;100.00
70027;BME280;57506;50.092;15.804;2023-12-20T03:40:04;98651.78;;;4.68;100.00
70027;BME280;57506;50.092;15.804;2023-12-20T03:42:30;98660.25;;;4.80;100.00
70027;BME280;57506;50.092;15.804;2023-12-20T03:44:56;98648.44;;;4.66;100.00
70027;BME280;57506;50.092;15.804;2023-12-20T03:47:22;98636.59;;;4.61;100.00
70027;BME280;57506;50.092;15.804;2023-12-20T03:49:47;98655.63;;;4.66;100.00
70027;BME280;57506;50.092;15.804;2023-12-20T03:52:13;98634.63;;;4.54;100.00
70027;BME280;57506;50.092;15.804;2023-12-20T03:54:38;98652.28;;;4.64;100.00
70027;BME280;57506;50.092;15.804;2023-12-20T03:57:04;98607.47;;;4.35;100.00
70027;BME280;57506;50.092;15.804;2023-12-20T03:59:34;98638.94;;;4.55;100.00
70027;BME280;57506;50.092;15.804;2023-12-20T04:02:01;98621.13;;;4.48;100.00
70027;BME280;57506;50.092;15.804;2023-12-20T04:04:27;98637.31;;;4.54;100.00
70027;BME280;57506;50.092;15.804;2023-12-20T04:06:52;98630.63;;;4.50;100.00
70027;BME280;57506;50.092;15.804;2023-12-20T04:09:18;98662.63;;;4.67;100.00
70027;BME280;57506;50.092;15.804;2023-12-20T04:11:44;98639.59;;;4.57;100.00
70027;BME280;57506;50.092;15.804;2023-12-20T04:14:09;98646.13;;;4.63;100.00
70027;BME280;57506;50.092;15.804;2023-12-20T04:16:35;98645.63;;;4.60;100.00
70027;BME280;57506;50.092;15.804;2023-12-20T04:19:01;98653.63;;;4.68;100.00
70027;BME280;57506;50.092;15.804;2023-12-20T04:21:27;98640.09;;;4.61;100.00
70027;BME280;57506;50.092;15.804;2023-12-20T04:23:53;98642.94;;;4.60;100.00
70027;BME280;57506;50.092;15.804;2023-12-20T04:26:18;98604.97;;;4.33;100.00
70027;BME280;57506;50.092;15.804;2023-12-20T04:28:44;98634.13;;;4.51;100.00
70027;BME280;57506;50.092;15.804;2023-12-20T04:31:09;98646.47;;;4.52;100.00
70027;BME280;57506;50.092;15.804;2023-12-20T04:33:35;98625.97;;;4.52;100.00
70027;BME280;57506;50.092;15.804;2023-12-20T04:36:01;98645.94;;;4.65;100.00
70027;BME280;57506;50.092;15.804;2023-12-20T04:38:26;98631.97;;;4.54;100.00
70027;BME280;57506;50.092;15.804;2023-12-20T04:40:52;98652.78;;;4.67;100.00
70027;BME280;57506;50.092;15.804;2023-12-20T04:43:17;98626.63;;;4.54;100.00
70027;BME280;57506;50.092;15.804;2023-12-20T04:45:43;98634.63;;;4.54;100.00
70027;BME280;57506;50.092;15.804;2023-12-20T04:48:09;98633.44;;;4.57;100.00
70027;BME280;57506;50.092;15.804;2023-12-20T04:50:34;98636.63;;;4.52;100.00
70027;BME280;57506;50.092;15.804;2023-12-20T04:53:00;98636.94;;;4.57;100.00
70027;BME280;57506;50.092;15.804;2023-12-20T04:55:26;98620.28;;;4.47;100.00
70027;BME280;57506;50.092;15.804;2023-12-20T04:57:51;98623.28;;;4.52;100.00
70027;BME280;57506;50.092;15.804;2023-12-20T05:00:17;98605.94;;;4.40;100.00
70027;BME280;57506;50.092;15.804;2023-12-20T05:02:43;98633.09;;;4.60;100.00
70027;BME280;57506;50.092;15.804;2023-12-20T05:05:08;98615.97;;;4.46;100.00
70027;BME280;57506;50.092;15.804;2023-12-20T05:07:34;98641.28;;;4.58;100.00
70027;BME280;57506;50.092;15.804;2023-12-20T05:10:00;98515.19;;;3.85;100.00
70027;BME280;57506;50.092;15.804;2023-12-20T05:12:25;98641.09;;;4.60;100.00
70027;BME280;57506;50.092;15.804;2023-12-20T05:14:52;98624.97;;;4.45;100.00
70027;BME280;57506;50.092;15.804;2023-12-20T05:17:17;98628.63;;;4.44;100.00
70027;BME280;57506;50.092;15.804;2023-12-20T05:19:43;98648.13;;;4.61;100.00
70027;BME280;57506;50.092;15.804;2023-12-20T05:22:09;98634.28;;;4.41;100.00
70027;BME280;57506;50.092;15.804;2023-12-20T05:24:35;98646.78;;;4.57;100.00
70027;BME280;57506;50.092;15.804;2023-12-20T05:27:00;98641.81;;;4.46;100.00
70027;BME280;57506;50.092;15.804;2023-12-20T05:29:25;98628.47;;;4.38;100.00
70027;BME280;57506;50.092;15.804;2023-12-20T05:31:51;98646.97;;;4.47;100.00
70027;BME280;57506;50.092;15.804;2023-12-20T05:34:17;98672.63;;;4.56;100.00
70027;BME280;57506;50.092;15.804;2023-12-20T05:36:43;98633.31;;;4.26;100.00
70027;BME280;57506;50.092;15.804;2023-12-20T05:39:08;98645.81;;;4.34;100.00
70027;BME280;57506;50.092;15.804;2023-12-20T05:41:34;98640.66;;;4.32;100.00
70027;BME280;57506;50.092;15.804;2023-12-20T05:43:59;98649.31;;;4.34;100.00
70027;BME280;57506;50.092;15.804;2023-12-20T05:46:25;98668.31;;;4.39;100.00
70027;BME280;57506;50.092;15.804;2023-12-20T05:48:51;98674.16;;;4.43;100.00
70027;BME280;57506;50.092;15.804;2023-12-20T05:51:17;98682.66;;;4.46;100.00
70027;BME280;57506;50.092;15.804;2023-12-20T05:53:44;98684.31;;;4.47;100.00
70027;BME280;57506;50.092;15.804;2023-12-20T05:56:10;98632.00;;;4.22;100.00
70027;BME280;57506;50.092;15.804;2023-12-20T05:58:36;98660.00;;;4.34;100.00
70027;BME280;57506;50.092;15.804;2023-12-20T06:01:05;98680.97;;;4.45;100.00
70027;BME280;57506;50.092;15.804;2023-12-20T06:03:31;98660.50;;;4.38;100.00
70027;BME280;57506;50.092;15.804;2023-12-20T06:05:56;98642.97;;;4.27;100.00
70027;BME280;57506;50.092;15.804;2023-12-20T06:08:22;98663.34;;;4.36;100.00
70027;BME280;57506;50.092;15.804;2023-12-20T06:10:48;98669.34;;;4.38;100.00
70027;BME280;57506;50.092;15.804;2023-12-20T06:13:13;98675.97;;;4.42;100.00
70027;BME280;57506;50.092;15.804;2023-12-20T06:15:40;98668.13;;;4.41;100.00
70027;BME280;57506;50.092;15.804;2023-12-20T06:18:06;98642.84;;;4.20;100.00
70027;BME280;57506;50.092;15.804;2023-12-20T06:20:32;98676.97;;;4.41;100.00
70027;BME280;57506;50.092;15.804;2023-12-20T06:22:57;98589.16;;;3.83;100.00
70027;BME280;57506;50.092;15.804;2023-12-20T06:25:23;98656.16;;;4.29;100.00
70027;BME280;57506;50.092;15.804;2023-12-20T06:27:48;98665.81;;;4.30;100.00
70027;BME280;57506;50.092;15.804;2023-12-20T06:30:15;98677.81;;;4.34;100.00
70027;BME280;57506;50.092;15.804;2023-12-20T06:32:41;98672.66;;;4.32;100.00
70027;BME280;57506;50.092;15.804;2023-12-20T06:35:09;98653.50;;;4.20;100.00
70027;BME280;57506;50.092;15.804;2023-12-20T06:37:35;98673.00;;;4.37;100.00
70027;BME280;57506;50.092;15.804;2023-12-20T06:40:00;98672.66;;;4.32;100.00
70027;BME280;57506;50.092;15.804;2023-12-20T06:42:26;98660.66;;;4.20;100.00
70027;BME280;57506;50.092;15.804;2023-12-20T06:44:52;98670.50;;;4.36;100.00
70027;BME280;57506;50.092;15.804;2023-12-20T06:47:18;98673.16;;;4.36;100.00
70027;BME280;57506;50.092;15.804;2023-12-20T06:49:43;98655.16;;;4.21;100.00
70027;BME280;57506;50.092;15.804;2023-12-20T06:52:09;98625.00;;;4.05;100.00
70027;BME280;57506;50.092;15.804;2023-12-20T06:54:34;98654.50;;;4.19;100.00
70027;BME280;57506;50.092;15.804;2023-12-20T06:57:00;98656.66;;;4.16;100.00
70027;BME280;57506;50.092;15.804;2023-12-20T06:59:29;98658.66;;;4.22;100.00
70027;BME280;57506;50.092;15.804;2023-12-20T07:01:54;98686.31;;;4.29;100.00
70027;BME280;57506;50.092;15.804;2023-12-20T07:04:20;98663.50;;;4.18;100.00
70027;BME280;57506;50.092;15.804;2023-12-20T07:06:50;98683.31;;;4.24;100.00
70027;BME280;57506;50.092;15.804;2023-12-20T07:09:22;98621.97;;;3.92;100.00
70027;BME280;57506;50.092;15.804;2023-12-20T07:11:47;98691.16;;;4.26;100.00
70027;BME280;57506;50.092;15.804;2023-12-20T07:14:13;98688.47;;;4.26;100.00
70027;BME280;57506;50.092;15.804;2023-12-20T07:16:38;98684.50;;;4.21;100.00
70027;BME280;57506;50.092;15.804;2023-12-20T07:19:04;98678.31;;;4.13;100.00
70027;BME280;57506;50.092;15.804;2023-12-20T07:21:29;98665.28;;;3.94;100.00
70027;BME280;57506;50.092;15.804;2023-12-20T07:23:55;98723.50;;;4.31;100.00
70027;BME280;57506;50.092;15.804;2023-12-20T07:26:20;98729.50;;;4.33;100.00
70027;BME280;57506;50.092;15.804;2023-12-20T07:28:46;98699.81;;;4.11;100.00
70027;BME280;57506;50.092;15.804;2023-12-20T07:31:11;98719.81;;;4.15;100.00
70027;BME280;57506;50.092;15.804;2023-12-20T07:33:37;98718.81;;;4.16;100.00
70027;BME280;57506;50.092;15.804;2023-12-20T07:36:03;98723.31;;;4.16;100.00
70027;BME280;57506;50.092;15.804;2023-12-20T07:38:28;98734.66;;;4.26;100.00
70027;BME280;57506;50.092;15.804;2023-12-20T07:40:54;98736.31;;;4.27;100.00
70027;BME280;57506;50.092;15.804;2023-12-20T07:43:19;98731.84;;;4.19;100.00
70027;BME280;57506;50.092;15.804;2023-12-20T07:45:45;98706.66;;;4.06;100.00
70027;BME280;57506;50.092;15.804;2023-12-20T07:48:11;98726.97;;;4.15;100.00
70027;BME280;57506;50.092;15.804;2023-12-20T07:50:36;98731.47;;;4.14;100.00
70027;BME280;57506;50.092;15.804;2023-12-20T07:53:02;98730.66;;;4.14;100.00
70027;BME280;57506;50.092;15.804;2023-12-20T07:55:28;98735.31;;;4.12;100.00
70027;BME280;57506;50.092;15.804;2023-12-20T07:57:57;98757.16;;;4.23;100.00
70027;BME280;57506;50.092;15.804;2023-12-20T08:00:23;98762.84;;;4.29;100.00
70027;BME280;57506;50.092;15.804;2023-12-20T08:02:49;98735.97;;;4.14;100.00
70027;BME280;57506;50.092;15.804;2023-12-20T08:05:14;98769.84;;;4.30;100.00
70027;BME280;57506;50.092;15.804;2023-12-20T08:07:40;98713.94;;;3.88;100.00
70027;BME280;57506;50.092;15.804;2023-12-20T08:10:06;98779.69;;;4.29;100.00
70027;BME280;57506;50.092;15.804;2023-12-20T08:12:32;98734.63;;;4.10;100.00
70027;BME280;57506;50.092;15.804;2023-12-20T08:14:58;98756.66;;;4.20;100.00
70027;BME280;57506;50.092;15.804;2023-12-20T08:17:24;98771.84;;;4.28;100.00
70027;BME280;57506;50.092;15.804;2023-12-20T08:19:50;98758.34;;;4.21;100.00
70027;BME280;57506;50.092;15.804;2023-12-20T08:22:16;98713.94;;;3.96;100.00
70027;BME280;57506;50.092;15.804;2023-12-20T08:24:41;98753.84;;;4.21;100.00
70027;BME280;57506;50.092;15.804;2023-12-20T08:27:07;98773.50;;;4.29;100.00
70027;BME280;57506;50.092;15.804;2023-12-20T08:29:33;98771.00;;;4.27;100.00
70027;BME280;57506;50.092;15.804;2023-12-20T08:31:58;98761.50;;;4.16;100.00
70027;BME280;57506;50.092;15.804;2023-12-20T08:34:24;98736.16;;;4.04;100.00
70027;BME280;57506;50.092;15.804;2023-12-20T08:36:53;98771.00;;;4.19;100.00
70027;BME280;57506;50.092;15.804;2023-12-20T08:39:18;98746.28;;;4.01;100.00
70027;BME280;57506;50.092;15.804;2023-12-20T08:41:44;98764.31;;;4.15;100.00
70027;BME280;57506;50.092;15.804;2023-12-20T08:44:09;98773.66;;;4.19;100.00
70027;BME280;57506;50.092;15.804;2023-12-20T08:46:35;98769.50;;;4.16;100.00
70027;BME280;57506;50.092;15.804;2023-12-20T08:49:01;98752.97;;;4.13;100.00
70027;BME280;57506;50.092;15.804;2023-12-20T08:51:26;98776.84;;;4.31;100.00
70027;BME280;57506;50.092;15.804;2023-12-20T08:53:52;98766.34;;;4.21;100.00
70027;BME280;57506;50.092;15.804;2023-12-20T08:56:18;98758.50;;;4.19;100.00
70027;BME280;57506;50.092;15.804;2023-12-20T08:58:46;98746.00;;;4.20;100.00
70027;BME280;57506;50.092;15.804;2023-12-20T09:01:12;98749.66;;;4.19;100.00
70027;BME280;57506;50.092;15.804;2023-12-20T09:03:39;98785.19;;;4.44;100.00
70027;BME280;57506;50.092;15.804;2023-12-20T09:06:04;98779.34;;;4.40;100.00
70027;BME280;57506;50.092;15.804;2023-12-20T09:08:30;98780.69;;;4.44;100.00
70027;BME280;57506;50.092;15.804;2023-12-20T09:10:56;98760.34;;;4.35;100.00
70027;BME280;57506;50.092;15.804;2023-12-20T09:13:21;98779.53;;;4.47;100.00
70027;BME280;57506;50.092;15.804;2023-12-20T09:15:51;98737.66;;;4.15;100.00
70027;BME280;57506;50.092;15.804;2023-12-20T09:18:17;98794.72;;;4.46;100.00
70027;BME280;57506;50.092;15.804;2023-12-20T09:20:42;98773.03;;;4.33;100.00
70027;BME280;57506;50.092;15.804;2023-12-20T09:23:08;98802.03;;;4.44;100.00
70027;BME280;57506;50.092;15.804;2023-12-20T09:25:33;98803.38;;;4.48;100.00
70027;BME280;57506;50.092;15.804;2023-12-20T09:27:59;98787.06;;;4.51;100.00
70027;BME280;57506;50.092;15.804;2023-12-20T09:30:24;98766.00;;;4.40;100.00
70027;BME280;57506;50.092;15.804;2023-12-20T09:32:50;98785.22;;;4.60;100.00
70027;BME280;57506;50.092;15.804;2023-12-20T09:35:15;98792.38;;;4.60;100.00
70027;BME280;57506;50.092;15.804;2023-12-20T09:37:41;98773.72;;;4.51;100.00
70027;BME280;57506;50.092;15.804;2023-12-20T09:40:11;98779.72;;;4.53;100.00
70027;BME280;57506;50.092;15.804;2023-12-20T09:42:47;98783.25;;;4.70;100.00
70027;BME280;57506;50.092;15.804;2023-12-20T09:45:15;98751.19;;;4.62;100.00
70027;BME280;57506;50.092;15.804;2023-12-20T09:47:44;98750.34;;;4.62;100.00
70027;BME280;57506;50.092;15.804;2023-12-20T09:50:10;98770.88;;;4.77;100.00
70027;BME280;57506;50.092;15.804;2023-12-20T09:52:38;98769.06;;;4.70;100.00
70027;BME280;57506;50.092;15.804;2023-12-20T09:55:04;98764.34;;;4.72;100.00
70027;BME280;57506;50.092;15.804;2023-12-20T09:57:33;98775.72;;;4.74;100.00
70027;BME280;57506;50.092;15.804;2023-12-20T09:59:59;98722.84;;;4.37;100.00
70027;BME280;57506;50.092;15.804;2023-12-20T10:02:25;98768.69;;;4.73;100.00
70027;BME280;57506;50.092;15.804;2023-12-20T10:04:53;98725.53;;;4.53;100.00
70027;BME280;57506;50.092;15.804;2023-12-20T10:07:19;98738.19;;;4.67;100.00
70027;BME280;57506;50.092;15.804;2023-12-20T10:09:46;98662.34;;;4.21;100.00
70027;BME280;57506;50.092;15.804;2023-12-20T10:12:12;98762.38;;;4.82;100.00
70027;BME280;57506;50.092;15.804;2023-12-20T10:14:39;98749.00;;;4.74;100.00
70027;BME280;57506;50.092;15.804;2023-12-20T10:17:05;98741.84;;;4.74;100.00
70027;BME280;57506;50.092;15.804;2023-12-20T10:19:32;98735.84;;;4.72;100.00
70027;BME280;57506;50.092;15.804;2023-12-20T10:22:04;98755.50;;;4.87;100.00
70027;BME280;57506;50.092;15.804;2023-12-20T10:24:30;98748.84;;;4.83;100.00
70027;BME280;57506;50.092;15.804;2023-12-20T10:27:06;98760.19;;;4.93;100.00
70027;BME280;57506;50.092;15.804;2023-12-20T10:29:35;98759.69;;;4.82;100.00
70027;BME280;57506;50.092;15.804;2023-12-20T10:32:21;98763.69;;;4.94;100.00
70027;BME280;57506;50.092;15.804;2023-12-20T10:34:49;98735.50;;;4.83;100.00
70027;BME280;57506;50.092;15.804;2023-12-20T10:37:14;98735.66;;;4.90;100.00
70027;BME280;57506;50.092;15.804;2023-12-20T10:39:42;98745.84;;;4.95;100.00
70027;BME280;57506;50.092;15.804;2023-12-20T10:42:09;98766.38;;;5.02;100.00
70027;BME280;57506;50.092;15.804;2023-12-20T10:44:36;98743.81;;;4.88;100.00
70027;BME280;57506;50.092;15.804;2023-12-20T10:47:03;98753.50;;;4.98;100.00
70027;BME280;57506;50.092;15.804;2023-12-20T10:49:30;98755.84;;;4.92;100.00
70027;BME280;57506;50.092;15.804;2023-12-20T10:51:58;98748.66;;;4.93;100.00
70027;BME280;57506;50.092;15.804;2023-12-20T10:54:25;98748.34;;;4.96;100.00
70027;BME280;57506;50.092;15.804;2023-12-20T10:56:52;98738.31;;;4.90;100.00
70027;BME280;57506;50.092;15.804;2023-12-20T10:59:19;98744.66;;;4.89;100.00
70027;BME280;57506;50.092;15.804;2023-12-20T11:01:47;98741.66;;;4.92;100.00
70027;BME280;57506;50.092;15.804;2023-12-20T11:04:25;98736.50;;;4.99;100.00
70027;BME280;57506;50.092;15.804;2023-12-20T11:06:58;98757.78;;;5.23;100.00
70027;BME280;57506;50.092;15.804;2023-12-20T11:09:33;98756.81;;;5.16;100.00
70027;BME280;57506;50.092;15.804;2023-12-20T11:14:38;98756.28;;;5.20;100.00
70027;BME280;57506;50.092;15.804;2023-12-20T11:17:10;98764.13;;;5.22;100.00
70027;BME280;57506;50.092;15.804;2023-12-20T11:22:24;98758.50;;;5.17;100.00
70027;BME280;57506;50.092;15.804;2023-12-20T11:24:53;98726.78;;;5.06;100.00
70027;BME280;57506;50.092;15.804;2023-12-20T11:27:19;98754.66;;;5.19;100.00
70027;BME280;57506;50.092;15.804;2023-12-20T11:29:52;98742.94;;;5.28;100.00
70027;BME280;57506;50.092;15.804;2023-12-20T11:35:39;98737.38;;;5.38;100.00
70027;BME280;57506;50.092;15.804;2023-12-20T11:37:40;98722.06;;;5.32;100.00
70027;BME280;57506;50.092;15.804;2023-12-20T11:40:12;98722.38;;;5.29;100.00
70027;BME280;57506;50.092;15.804;2023-12-20T11:42:39;98714.88;;;5.33;100.00
70027;BME280;57506;50.092;15.804;2023-12-20T11:45:08;98712.03;;;5.34;100.00
70027;BME280;57506;50.092;15.804;2023-12-20T11:47:34;98724.84;;;5.47;100.00
70027;BME280;57506;50.092;15.804;2023-12-20T11:50:00;98715.16;;;5.46;100.00
70027;BME280;57506;50.092;15.804;2023-12-20T11:52:29;98722.28;;;5.61;100.00
70027;BME280;57506;50.092;15.804;2023-12-20T11:54:54;98708.59;;;5.56;100.00
70027;BME280;57506;50.092;15.804;2023-12-20T11:57:20;98694.09;;;5.51;100.00
70027;BME280;57506;50.092;15.804;2023-12-20T11:59:45;98705.06;;;5.56;100.00
70027;BME280;57506;50.092;15.804;2023-12-20T12:02:14;98709.41;;;5.65;100.00
70027;BME280;57506;50.092;15.804;2023-12-20T12:04:43;98697.88;;;5.56;100.00
70027;BME280;57506;50.092;15.804;2023-12-20T12:07:09;98689.69;;;5.58;100.00
70027;BME280;57506;50.092;15.804;2023-12-20T12:09:35;98708.22;;;5.68;100.00
70027;BME280;57506;50.092;15.804;2023-12-20T12:12:01;98669.91;;;5.44;100.00
70027;BME280;57506;50.092;15.804;2023-12-20T12:14:27;98697.03;;;5.64;100.00
70027;BME280;57506;50.092;15.804;2023-12-20T12:16:53;98654.03;;;5.43;100.00
70027;BME280;57506;50.092;15.804;2023-12-20T12:19:21;98689.69;;;5.58;100.00
70027;BME280;57506;50.092;15.804;2023-12-20T12:21:47;98693.03;;;5.60;100.00
70027;BME280;57506;50.092;15.804;2023-12-20T12:24:13;98685.75;;;5.46;100.00
70027;BME280;57506;50.092;15.804;2023-12-20T12:26:38;98683.03;;;5.54;100.00
70027;BME280;57506;50.092;15.804;2023-12-20T12:29:07;98675.38;;;5.51;100.00
70027;BME280;57506;50.092;15.804;2023-12-20T12:31:33;98675.25;;;5.36;100.00
70027;BME280;57506;50.092;15.804;2023-12-20T12:33:58;98672.78;;;5.35;100.00
70027;BME280;57506;50.092;15.804;2023-12-20T12:36:24;98658.44;;;5.36;100.00
70027;BME280;57506;50.092;15.804;2023-12-20T12:38:49;98671.50;;;5.53;100.00
70027;BME280;57506;50.092;15.804;2023-12-20T12:41:15;98664.31;;;5.54;100.00
70027;BME280;57506;50.092;15.804;2023-12-20T12:43:41;98630.66;;;5.45;100.00
70027;BME280;57506;50.092;15.804;2023-12-20T12:46:07;98654.28;;;5.64;100.00
70027;BME280;57506;50.092;15.804;2023-12-20T12:48:32;98624.28;;;5.46;100.00
70027;BME280;57506;50.092;15.804;2023-12-20T12:50:59;98637.09;;;5.58;100.00
70027;BME280;57506;50.092;15.804;2023-12-20T12:53:25;98652.38;;;5.73;100.00